Time;durP1;ratioP1;P1;durP2;ratioP2;P2;SDS_P1;SDS_P2;PMS_P1;PMS_P2;Temp;Humidity;BMP_temperature;BMP_pressure;BME280_temperature;BME280_humidity;BME280_pressure;Samples;Min_cycle;Max_cycle;Signal;HPM_P1;HPM_P2
2022/05/31 00:00:09;;;;;;;2.90;1.60;;;9.30;99.90;;;;;;4788071;29;20674;-89
2022/05/31 00:02:35;;;;;;;1.73;1.00;;;9.30;99.90;;;;;;4787812;29;20184;-89
2022/05/31 00:05:01;;;;;;;2.43;1.17;;;9.30;99.90;;;;;;4788094;29;20213;-88
2022/05/31 00:07:27;;;;;;;2.38;1.30;;;9.20;99.90;;;;;;4787559;29;20191;-90
2022/05/31 00:09:52;;;;;;;3.33;1.23;;;9.20;99.90;;;;;;4787726;29;20228;-88
2022/05/31 00:12:18;;;;;;;1.30;1.00;;;9.20;99.90;;;;;;4787682;29;20595;-88
2022/05/31 00:14:44;;;;;;;2.27;1.33;;;9.20;99.90;;;;;;4787466;29;20245;-88
2022/05/31 00:17:10;;;;;;;2.00;1.20;;;9.20;99.90;;;;;;4787793;29;20221;-89
2022/05/31 00:19:36;;;;;;;2.27;1.20;;;9.30;99.90;;;;;;4787568;29;20263;-88
2022/05/31 00:22:17;;;;;;;2.00;1.37;;;9.20;99.90;;;;;;4787271;29;20239;-88
2022/05/31 00:24:43;;;;;;;2.60;1.47;;;9.20;99.90;;;;;;4787355;29;20580;-88
2022/05/31 00:27:11;;;;;;;2.30;1.00;;;9.30;99.90;;;;;;4787520;29;20195;-89
2022/05/31 00:29:37;;;;;;;2.23;1.20;;;9.20;99.90;;;;;;4789791;29;20199;-88
2022/05/31 00:32:07;;;;;;;1.57;1.30;;;9.20;99.90;;;;;;4790794;29;20562;-89
2022/05/31 00:34:36;;;;;;;1.87;1.20;;;9.20;99.90;;;;;;4790320;29;20266;-88
2022/05/31 00:37:04;;;;;;;1.97;1.10;;;9.10;99.90;;;;;;4790658;29;20199;-88
2022/05/31 00:39:30;;;;;;;2.90;1.33;;;9.10;99.90;;;;;;4790594;29;20546;-89
2022/05/31 00:41:57;;;;;;;1.80;1.33;;;9.10;99.90;;;;;;4790696;29;20187;-89
2022/05/31 00:44:27;;;;;;;3.60;1.10;;;9.10;99.90;;;;;;4790698;29;20199;-88
2022/05/31 00:46:59;;;;;;;3.30;1.43;;;9.00;99.90;;;;;;4790514;29;20191;-89
2022/05/31 00:49:43;;;;;;;1.43;1.13;;;8.90;99.90;;;;;;4790267;29;20191;-88
2022/05/31 00:52:17;;;;;;;1.23;0.97;;;8.90;99.90;;;;;;4791502;29;20180;-88
2022/05/31 00:54:52;;;;;;;4.00;1.33;;;9.00;99.90;;;;;;4790232;29;20676;-88
2022/05/31 00:57:18;;;;;;;2.20;1.23;;;8.90;99.90;;;;;;4790895;30;20194;-89
2022/05/31 00:59:52;;;;;;;1.33;1.00;;;8.90;99.90;;;;;;4790557;29;20671;-88
2022/05/31 01:02:18;;;;;;;1.97;1.00;;;8.90;99.90;;;;;;4790367;29;20191;-88
2022/05/31 01:04:57;;;;;;;1.30;1.07;;;8.90;99.90;;;;;;4790426;29;20223;-88
2022/05/31 01:07:23;;;;;;;1.63;1.40;;;8.80;99.90;;;;;;4790316;29;20191;-89
2022/05/31 01:09:50;;;;;;;1.70;1.03;;;8.80;99.90;;;;;;4790005;29;20564;-89
2022/05/31 01:12:16;;;;;;;1.70;1.40;;;8.90;99.90;;;;;;4790438;30;20191;-89
2022/05/31 01:14:42;;;;;;;2.43;1.23;;;8.80;99.90;;;;;;4790251;29;20229;-89
2022/05/31 01:17:12;;;;;;;2.67;1.37;;;8.80;99.90;;;;;;4790512;29;20278;-88
2022/05/31 01:19:56;;;;;;;2.03;1.20;;;8.70;99.90;;;;;;4789902;29;20188;-88
2022/05/31 01:22:43;;;;;;;2.10;1.27;;;8.70;99.90;;;;;;4790049;29;20715;-87
2022/05/31 01:25:25;;;;;;;1.30;1.20;;;8.70;99.90;;;;;;4789866;29;20207;-89
2022/05/31 01:27:54;;;;;;;3.30;1.43;;;8.60;99.90;;;;;;4790071;29;20187;-88
2022/05/31 01:33:03;;;;;;;2.27;1.20;;;8.50;99.90;;;;;;4778237;29;20241;-82
2022/05/31 01:35:32;;;;;;;2.10;1.33;;;8.60;99.90;;;;;;4808026;29;20217;-82
2022/05/31 01:38:15;;;;;;;1.67;1.27;;;8.60;99.90;;;;;;4807110;29;20178;-82
2022/05/31 01:41:09;;;;;;;2.00;1.40;;;8.50;99.90;;;;;;4808150;29;20274;-82
2022/05/31 01:43:34;;;;;;;3.93;1.30;;;8.50;99.90;;;;;;4807442;29;20193;-82
2022/05/31 01:46:12;;;;;;;2.50;1.37;;;8.50;99.90;;;;;;4808947;29;20518;-82
2022/05/31 01:48:40;;;;;;;2.17;1.00;;;8.40;99.90;;;;;;4808980;29;20174;-82
2022/05/31 01:51:06;;;;;;;3.80;1.33;;;8.40;99.90;;;;;;4822517;29;20516;-82
2022/05/31 01:53:33;;;;;;;1.87;1.37;;;8.40;99.90;;;;;;4822523;29;20190;-82
2022/05/31 01:55:59;;;;;;;3.73;1.17;;;8.40;99.90;;;;;;4807096;29;20198;-82
2022/05/31 01:58:32;;;;;;;1.67;1.40;;;8.30;99.90;;;;;;4808356;29;20191;-82
2022/05/31 02:00:58;;;;;;;1.40;1.17;;;8.30;99.90;;;;;;4822275;29;20643;-82
2022/05/31 02:03:24;;;;;;;1.30;1.20;;;8.20;99.90;;;;;;4808527;29;20255;-82
2022/05/31 02:05:51;;;;;;;5.50;1.30;;;8.30;99.90;;;;;;4806690;29;20198;-82
2022/05/31 02:08:22;;;;;;;1.37;1.27;;;8.30;99.90;;;;;;4808336;29;20582;-82
2022/05/31 02:10:49;;;;;;;1.23;1.10;;;8.20;99.90;;;;;;4808258;29;20194;-82
2022/05/31 02:13:17;;;;;;;2.77;1.20;;;8.30;99.90;;;;;;4806384;29;20293;-82
2022/05/31 02:15:42;;;;;;;3.30;1.30;;;8.20;99.90;;;;;;4806710;29;20602;-82
2022/05/31 02:18:10;;;;;;;2.77;1.10;;;8.20;99.90;;;;;;4808216;29;20217;-82
2022/05/31 02:20:36;;;;;;;4.77;1.10;;;8.10;99.90;;;;;;4808139;29;20190;-82
2022/05/31 02:23:02;;;;;;;2.33;1.30;;;8.10;99.90;;;;;;4808087;29;20243;-82
2022/05/31 02:25:27;;;;;;;3.33;1.40;;;8.10;99.90;;;;;;4807939;29;20179;-82
2022/05/31 02:27:53;;;;;;;2.77;1.27;;;8.10;99.90;;;;;;4807601;29;20311;-82
2022/05/31 02:30:19;;;;;;;1.20;1.07;;;8.10;99.90;;;;;;4806828;29;20633;-82
2022/05/31 02:32:44;;;;;;;3.27;1.30;;;8.00;99.90;;;;;;4807875;29;20239;-82
2022/05/31 02:35:10;;;;;;;3.30;1.40;;;8.00;99.90;;;;;;4807822;29;20594;-82
2022/05/31 02:37:37;;;;;;;1.73;1.20;;;8.00;99.90;;;;;;4807981;29;20680;-82
2022/05/31 02:40:05;;;;;;;1.87;1.40;;;7.90;99.90;;;;;;4806435;29;20216;-81
2022/05/31 02:42:31;;;;;;;2.63;1.40;;;7.90;99.90;;;;;;4807632;29;20265;-82
2022/05/31 02:44:57;;;;;;;2.03;1.50;;;7.90;99.90;;;;;;4807638;29;20574;-82
2022/05/31 02:47:23;;;;;;;2.47;1.30;;;7.90;99.90;;;;;;4806221;29;20183;-82
2022/05/31 02:49:49;;;;;;;1.87;1.30;;;8.00;99.90;;;;;;4807664;29;20190;-82
2022/05/31 02:52:15;;;;;;;1.50;1.23;;;7.90;99.90;;;;;;4807409;29;20277;-82
2022/05/31 02:54:41;;;;;;;1.73;1.23;;;8.00;99.90;;;;;;4806084;29;20690;-82
2022/05/31 02:57:08;;;;;;;3.03;1.47;;;7.90;99.90;;;;;;4806792;29;20286;-82
2022/05/31 02:59:33;;;;;;;1.90;1.23;;;7.90;99.90;;;;;;4807544;29;20259;-82
2022/05/31 03:01:59;;;;;;;2.63;1.30;;;7.80;99.90;;;;;;4807518;29;20638;-83
2022/05/31 03:04:25;;;;;;;2.30;1.30;;;7.80;99.90;;;;;;4806215;29;20693;-82
2022/05/31 03:06:50;;;;;;;3.23;1.37;;;7.80;99.90;;;;;;4807505;29;20167;-82
2022/05/31 03:09:16;;;;;;;3.67;1.30;;;7.80;99.90;;;;;;4807375;29;20222;-82
2022/05/31 03:11:52;;;;;;;3.37;1.30;;;7.90;99.90;;;;;;4807279;29;20214;-82
2022/05/31 03:14:30;;;;;;;1.63;1.13;;;7.90;99.90;;;;;;4807194;29;20233;-82
2022/05/31 03:17:03;;;;;;;3.53;1.30;;;7.90;99.90;;;;;;4807320;29;20179;-82
2022/05/31 03:19:35;;;;;;;2.33;1.37;;;7.90;99.90;;;;;;4807392;29;20193;-82
2022/05/31 03:22:05;;;;;;;1.43;1.23;;;7.80;99.90;;;;;;4806139;29;20532;-82
2022/05/31 03:24:40;;;;;;;1.77;1.40;;;7.80;99.90;;;;;;4821371;29;20251;-82
2022/05/31 03:27:08;;;;;;;2.53;1.20;;;7.80;99.90;;;;;;4805965;29;20563;-83
2022/05/31 03:29:37;;;;;;;3.27;1.30;;;7.80;99.90;;;;;;4806056;29;20198;-83
2022/05/31 03:32:04;;;;;;;4.17;1.73;;;7.80;99.90;;;;;;4806945;29;20235;-83
2022/05/31 03:34:29;;;;;;;1.40;1.30;;;7.80;99.90;;;;;;4807004;29;20237;-83
2022/05/31 03:36:55;;;;;;;1.83;1.37;;;7.80;99.90;;;;;;4807344;29;20175;-83
2022/05/31 03:39:21;;;;;;;3.67;1.50;;;7.80;99.90;;;;;;4807188;29;20269;-83
2022/05/31 03:41:46;;;;;;;2.80;1.20;;;7.80;99.90;;;;;;4805809;29;20288;-83
2022/05/31 03:44:12;;;;;;;3.93;1.10;;;7.80;99.90;;;;;;4806987;29;20191;-82
2022/05/31 03:46:38;;;;;;;2.77;1.30;;;7.80;99.90;;;;;;4805823;29;20210;-82
2022/05/31 03:49:03;;;;;;;3.20;1.00;;;7.90;99.90;;;;;;4805961;29;20580;-83
2022/05/31 03:51:29;;;;;;;2.87;1.10;;;7.80;99.90;;;;;;4807189;29;20187;-83
2022/05/31 03:53:55;;;;;;;2.07;1.30;;;7.80;99.90;;;;;;4805974;29;20313;-83
2022/05/31 03:56:20;;;;;;;1.73;1.30;;;7.80;99.90;;;;;;4806921;29;20175;-83
2022/05/31 03:58:46;;;;;;;3.07;1.30;;;7.80;99.90;;;;;;4806935;29;20236;-83
2022/05/31 04:01:11;;;;;;;1.83;1.20;;;7.90;99.90;;;;;;4805578;29;20186;-82
2022/05/31 04:03:37;;;;;;;1.87;1.20;;;7.90;99.90;;;;;;4807788;29;20194;-83
2022/05/31 04:06:03;;;;;;;3.00;1.27;;;8.00;99.90;;;;;;4809192;29;20179;-82
2022/05/31 04:08:28;;;;;;;1.80;1.10;;;8.10;99.90;;;;;;4809275;29;20575;-83
2022/05/31 04:10:55;;;;;;;1.97;1.40;;;8.10;99.90;;;;;;4809224;29;20627;-83
2022/05/31 04:13:22;;;;;;;3.77;1.47;;;8.10;99.90;;;;;;4810077;29;20239;-83
2022/05/31 04:15:49;;;;;;;1.70;1.20;;;8.10;99.90;;;;;;4808895;29;20214;-83
2022/05/31 04:18:16;;;;;;;3.03;1.50;;;8.10;99.90;;;;;;4809036;29;20190;-82
2022/05/31 04:20:42;;;;;;;1.80;1.33;;;8.10;99.90;;;;;;4809072;29;20217;-83
2022/05/31 04:26:06;;;;;;;1.73;1.23;;;8.00;99.90;;;;;;4809837;29;20232;-82
2022/05/31 04:28:32;;;;;;;4.27;1.30;;;8.10;99.90;;;;;;4808614;29;20269;-83
2022/05/31 04:30:57;;;;;;;1.30;1.10;;;8.10;99.90;;;;;;4808767;29;20322;-83
2022/05/31 04:33:23;;;;;;;4.13;1.30;;;8.20;99.90;;;;;;4810002;29;20211;-83
2022/05/31 04:35:58;;;;;;;1.17;1.07;;;8.20;99.90;;;;;;4808851;29;20194;-83
2022/05/31 04:38:23;;;;;;;2.43;1.40;;;8.30;99.90;;;;;;4809868;29;20223;-83
2022/05/31 04:40:49;;;;;;;1.23;1.13;;;8.30;99.90;;;;;;4809788;29;20590;-83
2022/05/31 04:43:15;;;;;;;2.17;1.27;;;8.30;99.90;;;;;;4809558;29;20572;-83
2022/05/31 04:45:41;;;;;;;3.23;1.40;;;8.40;99.90;;;;;;4808399;29;20225;-83
2022/05/31 04:48:07;;;;;;;3.83;1.40;;;8.50;99.90;;;;;;4809662;29;20183;-83
2022/05/31 04:50:34;;;;;;;2.67;1.50;;;8.60;99.90;;;;;;4823638;29;20200;-83
2022/05/31 04:53:00;;;;;;;2.87;1.50;;;8.60;99.90;;;;;;4808303;29;20214;-83
2022/05/31 04:55:29;;;;;;;2.63;1.50;;;8.70;99.90;;;;;;4809421;29;20612;-83
2022/05/31 04:57:54;;;;;;;5.80;1.40;;;8.70;99.90;;;;;;4808230;29;20186;-83
2022/05/31 05:00:21;;;;;;;3.23;1.47;;;8.80;99.90;;;;;;4809054;29;20202;-83
2022/05/31 05:02:47;;;;;;;1.70;1.20;;;8.90;99.90;;;;;;4822070;29;20191;-83
2022/05/31 05:05:12;;;;;;;2.73;1.40;;;9.00;99.90;;;;;;4808268;29;20254;-83
2022/05/31 05:07:38;;;;;;;3.63;1.20;;;9.00;99.90;;;;;;4809355;29;20239;-82
2022/05/31 05:10:08;;;;;;;1.93;1.30;;;9.10;99.90;;;;;;4807693;29;20190;-83
2022/05/31 05:12:35;;;;;;;3.70;1.40;;;9.20;99.90;;;;;;4807944;29;20194;-83
2022/05/31 05:15:01;;;;;;;3.03;1.30;;;9.30;99.90;;;;;;4822031;29;20218;-82
2022/05/31 05:17:27;;;;;;;3.83;1.37;;;9.40;99.90;;;;;;4808164;29;20179;-82
2022/05/31 05:19:53;;;;;;;2.83;1.23;;;9.50;99.90;;;;;;4808174;29;20622;-82
2022/05/31 05:22:18;;;;;;;2.75;1.42;;;9.60;99.90;;;;;;4809193;29;20235;-82
2022/05/31 05:24:44;;;;;;;4.43;1.38;;;9.60;99.90;;;;;;4808924;29;20660;-82
2022/05/31 05:27:10;;;;;;;2.28;1.10;;;9.80;99.90;;;;;;4807755;29;20175;-82
2022/05/31 05:32:20;;;;;;;4.10;1.50;;;9.90;99.90;;;;;;4809058;29;20276;-82
2022/05/31 05:34:52;;;;;;;3.58;1.42;;;10.00;99.90;;;;;;4808759;29;20238;-82
2022/05/31 05:37:19;;;;;;;1.63;1.20;;;10.00;99.90;;;;;;4809032;29;20167;-82
2022/05/31 05:39:47;;;;;;;5.10;1.58;;;10.00;99.90;;;;;;4809016;29;20226;-82
2022/05/31 05:42:14;;;;;;;4.45;1.30;;;10.10;99.90;;;;;;4808678;29;20198;-82
2022/05/31 05:44:41;;;;;;;2.88;1.50;;;10.10;99.90;;;;;;4807443;29;20186;-82
2022/05/31 05:47:08;;;;;;;4.13;1.52;;;10.20;99.90;;;;;;4809178;29;20252;-82
2022/05/31 05:49:34;;;;;;;3.60;1.23;;;10.20;99.90;;;;;;4807465;29;20190;-82
2022/05/31 05:52:03;;;;;;;2.10;1.27;;;10.30;99.90;;;;;;4807740;29;20194;-82
2022/05/31 05:54:29;;;;;;;2.75;1.10;;;10.30;99.90;;;;;;4807289;29;20255;-82
2022/05/31 05:56:54;;;;;;;1.00;0.90;;;10.30;99.90;;;;;;4808478;29;20183;-81
2022/05/31 05:59:20;;;;;;;2.78;1.20;;;10.40;99.90;;;;;;4807469;29;20186;-82
2022/05/31 06:02:00;;;;;;;1.88;1.30;;;10.40;99.90;;;;;;4807269;29;20182;-82
2022/05/31 06:04:31;;;;;;;2.10;1.40;;;10.40;99.90;;;;;;4808323;29;20174;-82
2022/05/31 06:07:06;;;;;;;1.73;1.10;;;10.40;99.90;;;;;;4807318;29;20190;-82
2022/05/31 06:09:34;;;;;;;1.88;1.10;;;10.40;99.90;;;;;;4808433;29;20666;-82
2022/05/31 06:12:29;;;;;;;3.15;1.20;;;10.40;99.90;;;;;;4808186;29;20207;-82
2022/05/31 06:14:59;;;;;;;3.90;1.38;;;10.40;99.90;;;;;;4807793;29;20230;-82
2022/05/31 06:17:33;;;;;;;3.60;1.45;;;10.60;99.90;;;;;;4808318;29;20183;-82
2022/05/31 06:20:03;;;;;;;4.25;1.40;;;10.60;99.90;;;;;;4807026;29;20560;-82
2022/05/31 06:22:30;;;;;;;2.53;1.40;;;10.60;99.90;;;;;;4807035;29;20619;-82
2022/05/31 06:25:00;;;;;;;1.80;1.52;;;10.70;99.90;;;;;;4807943;29;20637;-82
2022/05/31 06:27:27;;;;;;;3.22;1.88;;;10.80;99.90;;;;;;4807713;29;20251;-83
2022/05/31 06:29:52;;;;;;;3.03;1.85;;;11.00;99.90;;;;;;4808253;29;20274;-82
2022/05/31 06:32:18;;;;;;;4.45;1.73;;;11.00;99.90;;;;;;4806637;29;20737;-83
2022/05/31 06:34:45;;;;;;;3.60;1.77;;;11.10;99.90;;;;;;4806704;29;20310;-83
2022/05/31 06:37:13;;;;;;;7.10;1.92;;;11.20;99.90;;;;;;4807979;29;20166;-83
2022/05/31 06:39:41;;;;;;;2.72;1.90;;;11.30;99.90;;;;;;4806523;29;20194;-82
2022/05/31 06:42:07;;;;;;;4.68;2.03;;;11.30;99.90;;;;;;4807568;29;20193;-83
2022/05/31 06:44:35;;;;;;;3.03;1.95;;;11.40;99.90;;;;;;4821720;29;20522;-83
2022/05/31 06:47:01;;;;;;;4.25;1.90;;;11.60;99.90;;;;;;4807776;29;20171;-82
2022/05/31 06:49:29;;;;;;;4.40;1.75;;;11.80;99.90;;;;;;4806519;29;20646;-82
2022/05/31 06:57:22;;;;;;;2.97;1.55;;;12.30;99.90;;;;;;4807610;29;20259;-84
2022/05/31 06:59:48;;;;;;;5.22;1.85;;;12.50;99.90;;;;;;4806464;29;20194;-83
2022/05/31 07:02:14;;;;;;;2.60;1.35;;;12.70;99.90;;;;;;4806309;29;20189;-82
2022/05/31 07:04:39;;;;;;;3.60;1.42;;;12.90;99.90;;;;;;4821550;29;20627;-82
2022/05/31 07:07:06;;;;;;;2.92;1.33;;;13.10;99.90;;;;;;4807602;29;20610;-83
2022/05/31 07:09:34;;;;;;;2.72;1.52;;;13.10;99.90;;;;;;4807529;29;20187;-83
2022/05/31 07:12:00;;;;;;;2.92;1.35;;;13.20;99.90;;;;;;4806026;29;20187;-83
2022/05/31 07:14:27;;;;;;;5.28;1.38;;;13.30;99.90;;;;;;4821202;29;20305;-82
2022/05/31 07:16:52;;;;;;;3.45;1.30;;;13.50;99.90;;;;;;4821473;29;20186;-83
2022/05/31 07:19:18;;;;;;;8.30;1.90;;;13.70;99.90;;;;;;4806149;29;20657;-83
2022/05/31 07:21:44;;;;;;;4.55;1.40;;;13.90;99.90;;;;;;4807514;29;20186;-83
2022/05/31 07:24:10;;;;;;;4.35;1.55;;;14.00;99.90;;;;;;4807362;29;20634;-83
2022/05/31 07:26:38;;;;;;;3.40;1.35;;;14.10;99.90;;;;;;4821397;29;20186;-83
2022/05/31 07:29:04;;;;;;;2.17;1.20;;;14.30;99.90;;;;;;4805798;29;20269;-83
2022/05/31 07:31:29;;;;;;;4.03;1.35;;;14.30;99.90;;;;;;4821038;29;20329;-83
2022/05/31 07:33:56;;;;;;;2.05;1.15;;;14.40;99.90;;;;;;4807389;29;20213;-83
2022/05/31 07:36:22;;;;;;;5.53;1.20;;;14.60;99.90;;;;;;4807185;29;20611;-82
2022/05/31 07:38:47;;;;;;;1.88;1.00;;;14.70;99.90;;;;;;4808469;29;20235;-82
2022/05/31 07:41:13;;;;;;;9.30;1.45;;;14.80;99.90;;;;;;4809746;29;20198;-82
2022/05/31 07:43:39;;;;;;;2.22;1.05;;;14.90;99.90;;;;;;4810685;29;20187;-82
2022/05/31 07:46:07;;;;;;;3.47;1.50;;;15.00;99.90;;;;;;4810704;29;20194;-82
2022/05/31 07:48:37;;;;;;;2.03;1.17;;;15.00;99.90;;;;;;4810842;29;20511;-83
2022/05/31 07:51:03;;;;;;;3.53;1.00;;;15.10;99.90;;;;;;4810776;29;20265;-81
2022/05/31 07:53:30;;;;;;;4.15;1.10;;;15.30;99.90;;;;;;4810787;29;20630;-84
2022/05/31 07:55:59;;;;;;;4.55;1.20;;;15.40;99.10;;;;;;4809361;29;20232;-83
2022/05/31 07:58:31;;;;;;;3.67;1.10;;;15.60;99.60;;;;;;4809188;29;20299;-82
2022/05/31 08:00:57;;;;;;;4.43;1.23;;;15.70;99.60;;;;;;4810623;29;20271;-83
2022/05/31 08:03:23;;;;;;;6.15;0.98;;;15.70;99.10;;;;;;4810699;29;20175;-83
2022/05/31 08:05:49;;;;;;;5.50;0.90;;;15.80;99.70;;;;;;4810399;29;20266;-83
2022/05/31 08:08:14;;;;;;;3.72;0.90;;;15.80;99.00;;;;;;4810643;29;20179;-83
2022/05/31 08:10:40;;;;;;;3.97;0.77;;;15.90;98.00;;;;;;4824216;29;20186;-83
2022/05/31 08:13:06;;;;;;;1.63;1.00;;;15.90;97.30;;;;;;4808948;29;20239;-82
2022/05/31 08:15:32;;;;;;;3.22;0.90;;;15.80;97.00;;;;;;4808879;29;20582;-82
2022/05/31 08:17:58;;;;;;;1.90;0.90;;;16.00;97.30;;;;;;4810323;29;20198;-83
2022/05/31 08:20:23;;;;;;;2.53;0.90;;;16.00;97.70;;;;;;4809137;29;20285;-83
2022/05/31 08:22:49;;;;;;;1.58;0.90;;;16.00;95.90;;;;;;4810340;29;20178;-82
2022/05/31 08:25:15;;;;;;;1.85;0.68;;;16.20;97.20;;;;;;4810205;29;20189;-82
2022/05/31 08:27:41;;;;;;;2.28;0.90;;;16.30;97.70;;;;;;4809954;29;20258;-82
2022/05/31 08:30:07;;;;;;;1.52;0.70;;;16.40;95.80;;;;;;4810130;29;20687;-82
2022/05/31 08:32:36;;;;;;;2.13;1.08;;;16.10;96.10;;;;;;4809946;29;20230;-84
2022/05/31 08:35:04;;;;;;;2.13;0.90;;;15.70;95.60;;;;;;4809971;29;20543;-84
2022/05/31 08:37:30;;;;;;;1.58;0.85;;;15.40;98.10;;;;;;4808909;29;20184;-84
2022/05/31 08:39:57;;;;;;;1.80;0.82;;;15.30;99.70;;;;;;4809965;29;20186;-83
2022/05/31 08:42:44;;;;;;;3.10;0.90;;;15.50;96.90;;;;;;4809611;29;20190;-84
2022/05/31 08:45:24;;;;;;;3.13;0.80;;;15.60;95.10;;;;;;4808642;29;20202;-82
2022/05/31 08:48:10;;;;;;;5.13;0.90;;;16.10;96.60;;;;;;4809979;29;20542;-83
2022/05/31 08:56:56;;;;;;;1.00;0.70;;;16.70;96.40;;;;;;4809538;29;20223;-83
2022/05/31 08:59:34;;;;;;;1.80;0.60;;;17.10;93.00;;;;;;4809494;29;20715;-83
2022/05/31 09:02:06;;;;;;;0.95;0.55;;;17.30;92.40;;;;;;4808720;29;20186;-83
2022/05/31 09:04:45;;;;;;;1.88;0.63;;;17.20;90.90;;;;;;4823420;29;20179;-83
2022/05/31 09:07:40;;;;;;;1.35;0.50;;;17.10;92.20;;;;;;4809548;29;20171;-83
2022/05/31 09:10:29;;;;;;;1.52;0.70;;;17.00;92.90;;;;;;4809214;29;20199;-83
2022/05/31 09:13:05;;;;;;;3.20;0.60;;;16.70;92.00;;;;;;4809083;29;20199;-83
2022/05/31 09:15:57;;;;;;;2.00;0.50;;;16.60;92.70;;;;;;4807969;29;20261;-84
2022/05/31 09:18:42;;;;;;;2.60;0.90;;;16.60;93.30;;;;;;4823418;29;20233;-82
2022/05/31 09:21:37;;;;;;;2.45;0.95;;;16.50;93.10;;;;;;4808145;29;20190;-83
2022/05/31 09:24:06;;;;;;;2.15;0.80;;;16.20;93.00;;;;;;4822961;29;20607;-83
2022/05/31 09:26:40;;;;;;;3.72;0.73;;;16.10;94.70;;;;;;4807942;29;20201;-83
2022/05/31 09:29:33;;;;;;;2.83;0.90;;;16.20;95.10;;;;;;4807670;29;20183;-84
2022/05/31 09:32:20;;;;;;;2.08;0.80;;;16.60;93.10;;;;;;4807771;29;20269;-84
2022/05/31 09:35:01;;;;;;;2.20;0.98;;;16.90;91.80;;;;;;4807761;29;20221;-84
2022/05/31 09:37:45;;;;;;;1.80;0.80;;;17.10;91.00;;;;;;4807933;29;20175;-84
2022/05/31 09:40:11;;;;;;;5.50;1.00;;;17.20;92.50;;;;;;4810415;29;20197;-84
2022/05/31 09:42:59;;;;;;;3.25;0.80;;;17.40;90.90;;;;;;4826973;29;20213;-83
2022/05/31 09:45:28;;;;;;;1.92;0.70;;;17.60;90.70;;;;;;4825733;29;20647;-83
2022/05/31 09:47:56;;;;;;;2.70;1.30;;;17.80;90.30;;;;;;4825890;29;20684;-83
2022/05/31 09:50:27;;;;;;;2.80;1.00;;;18.00;90.80;;;;;;4826968;29;20219;-83
2022/05/31 09:52:56;;;;;;;2.60;0.98;;;18.10;87.20;;;;;;4825786;29;20189;-82
2022/05/31 09:58:40;;;;;;;1.35;0.88;;;18.20;90.20;;;;;;4826697;29;20258;-82
2022/05/31 10:01:12;;;;;;;3.08;1.20;;;18.10;90.10;;;;;;4825041;29;20247;-83
2022/05/31 10:03:48;;;;;;;3.17;0.80;;;18.10;90.00;;;;;;4825227;29;20178;-82
2022/05/31 10:06:21;;;;;;;1.55;0.95;;;18.10;90.00;;;;;;4825613;29;20527;-83
2022/05/31 10:08:51;;;;;;;3.50;1.20;;;18.50;89.60;;;;;;4825478;29;20532;-83
2022/05/31 10:11:44;;;;;;;2.90;0.90;;;18.70;88.70;;;;;;4814737;29;20258;-82
2022/05/31 10:14:25;;;;;;;2.38;0.95;;;18.80;90.20;;;;;;4806814;29;20267;-82
2022/05/31 10:16:54;;;;;;;2.95;1.40;;;19.10;90.20;;;;;;4807288;29;20229;-82
2022/05/31 10:19:26;;;;;;;2.35;1.10;;;19.10;85.60;;;;;;4808274;29;20163;-84
2022/05/31 10:21:52;;;;;;;1.88;1.08;;;19.20;83.00;;;;;;4808335;29;20204;-84
2022/05/31 10:24:21;;;;;;;4.97;1.10;;;19.10;86.40;;;;;;4807985;29;20187;-83
2022/05/31 10:27:05;;;;;;;1.77;1.35;;;19.00;88.50;;;;;;4808023;29;20550;-83
2022/05/31 10:29:41;;;;;;;2.05;1.15;;;19.20;88.10;;;;;;4807895;29;20166;-84
2022/05/31 10:32:34;;;;;;;3.53;1.30;;;19.30;89.50;;;;;;4806705;29;20233;-84
2022/05/31 10:35:09;;;;;;;1.83;1.23;;;19.20;89.30;;;;;;4804423;29;20242;-84
2022/05/31 10:37:35;;;;;;;4.75;1.58;;;19.20;88.10;;;;;;4806860;29;20186;-83
2022/05/31 10:40:08;;;;;;;2.17;1.20;;;19.30;89.30;;;;;;4807865;29;20183;-84
2022/05/31 10:42:41;;;;;;;1.60;1.08;;;19.30;81.50;;;;;;4806464;29;20522;-84
2022/05/31 10:45:08;;;;;;;2.88;1.05;;;19.30;84.90;;;;;;4821677;29;20187;-83
2022/05/31 10:47:34;;;;;;;4.55;0.93;;;19.40;85.60;;;;;;4807664;29;20252;-83
2022/05/31 10:50:02;;;;;;;1.40;0.90;;;19.50;88.30;;;;;;4807911;29;20560;-82
2022/05/31 10:52:48;;;;;;;2.47;1.20;;;19.60;89.20;;;;;;4807965;29;20182;-83
2022/05/31 10:55:26;;;;;;;1.30;0.98;;;19.50;87.50;;;;;;4806270;29;20214;-83
2022/05/31 10:58:01;;;;;;;1.80;1.15;;;19.60;88.00;;;;;;4807411;29;20170;-83
2022/05/31 11:00:54;;;;;;;3.75;1.27;;;19.80;86.90;;;;;;4807620;29;20178;-83
2022/05/31 11:03:28;;;;;;;1.55;0.73;;;19.90;83.70;;;;;;4803273;29;20615;-83
2022/05/31 11:06:09;;;;;;;3.97;1.10;;;19.50;84.70;;;;;;4803263;29;20247;-83
2022/05/31 11:11:52;;;;;;;3.30;0.98;;;18.60;83.90;;;;;;4807594;29;20182;-82
2022/05/31 11:14:35;;;;;;;2.58;1.00;;;18.40;86.50;;;;;;4805186;29;20588;-83
2022/05/31 11:17:13;;;;;;;2.47;0.98;;;18.20;88.60;;;;;;4806236;29;20287;-82
2022/05/31 11:20:07;;;;;;;3.00;1.05;;;18.40;88.70;;;;;;4807554;29;20178;-83
2022/05/31 11:22:53;;;;;;;4.35;1.25;;;18.80;89.00;;;;;;4805996;29;20174;-83
2022/05/31 11:25:38;;;;;;;1.60;1.00;;;19.30;88.50;;;;;;4806053;29;20175;-83
2022/05/31 11:28:29;;;;;;;2.25;1.10;;;19.60;84.40;;;;;;4807473;29;20242;-84
2022/05/31 11:31:26;;;;;;;1.00;0.90;;;19.90;86.40;;;;;;4798716;29;20226;-82
2022/05/31 11:34:05;;;;;;;4.50;1.17;;;20.00;85.20;;;;;;4807169;29;20181;-85
2022/05/31 11:36:48;;;;;;;2.78;1.20;;;20.10;84.40;;;;;;4804916;29;20198;-83
2022/05/31 11:39:20;;;;;;;2.25;1.08;;;20.20;87.20;;;;;;4806007;29;20650;-82
2022/05/31 11:42:21;;;;;;;1.67;1.10;;;20.20;86.40;;;;;;4805761;29;20191;-82
2022/05/31 11:45:25;;;;;;;1.95;0.80;;;20.20;85.70;;;;;;4806257;29;20195;-82
2022/05/31 11:48:22;;;;;;;1.77;1.20;;;20.30;85.20;;;;;;4821019;29;20178;-82
2022/05/31 11:50:48;;;;;;;1.27;1.00;;;20.40;80.40;;;;;;4806904;29;20482;-82
2022/05/31 11:53:41;;;;;;;1.60;1.10;;;20.40;81.10;;;;;;4805925;29;20677;-84
2022/05/31 11:56:32;;;;;;;1.77;1.05;;;20.50;79.70;;;;;;4805574;29;20207;-83
2022/05/31 11:59:08;;;;;;;1.25;0.80;;;20.70;79.80;;;;;;4807130;29;20167;-82
2022/05/31 12:01:43;;;;;;;2.97;0.90;;;20.80;80.90;;;;;;4807182;29;20261;-82
2022/05/31 12:04:27;;;;;;;2.30;1.00;;;21.10;80.50;;;;;;4806912;29;20258;-82
2022/05/31 12:07:03;;;;;;;1.40;0.82;;;21.30;80.30;;;;;;4806651;29;20247;-82
2022/05/31 12:09:33;;;;;;;2.58;1.10;;;21.40;82.00;;;;;;4806304;29;20186;-82
2022/05/31 12:12:32;;;;;;;2.53;1.00;;;21.40;77.50;;;;;;4807003;29;20231;-82
2022/05/31 12:15:10;;;;;;;2.95;1.10;;;21.10;74.70;;;;;;4805475;29;20254;-82
2022/05/31 12:17:56;;;;;;;2.47;0.98;;;21.10;77.10;;;;;;4805670;29;20194;-83
2022/05/31 12:20:39;;;;;;;1.77;1.00;;;21.10;78.80;;;;;;4805693;29;20265;-83
2022/05/31 12:23:46;;;;;;;1.55;0.90;;;21.10;79.00;;;;;;4805604;29;20207;-83
2022/05/31 12:26:42;;;;;;;3.25;1.10;;;21.10;79.30;;;;;;4809038;29;20190;-82
2022/05/31 12:29:11;;;;;;;3.63;1.38;;;21.10;74.80;;;;;;4810248;29;20178;-83
2022/05/31 12:31:39;;;;;;;1.92;1.10;;;20.80;80.70;;;;;;4809761;29;20615;-84
2022/05/31 12:34:31;;;;;;;2.47;1.05;;;20.50;80.30;;;;;;4809985;29;20861;-82
2022/05/31 12:37:08;;;;;;;2.10;0.85;;;20.50;78.60;;;;;;4808038;29;20670;-82
2022/05/31 12:39:36;;;;;;;2.90;1.10;;;20.60;78.20;;;;;;4809960;29;20182;-83
2022/05/31 12:42:14;;;;;;;3.75;1.00;;;20.70;77.50;;;;;;4808672;29;20186;-82
2022/05/31 12:44:45;;;;;;;2.58;0.90;;;20.60;79.20;;;;;;4808275;29;20178;-82
2022/05/31 12:47:33;;;;;;;3.90;0.82;;;20.80;78.80;;;;;;4809897;29;20178;-81
2022/05/31 12:50:04;;;;;;;2.78;1.10;;;21.00;80.30;;;;;;4808660;29;20256;-82
2022/05/31 12:55:25;;;;;;;1.73;0.80;;;21.50;77.20;;;;;;4809865;29;20289;-83
2022/05/31 13:00:49;;;;;;;1.20;0.70;;;22.10;77.10;;;;;;4809628;29;20189;-82
2022/05/31 13:03:32;;;;;;;2.03;1.00;;;22.10;75.00;;;;;;4809622;29;20183;-83
2022/05/31 13:06:29;;;;;;;1.15;0.80;;;22.20;76.10;;;;;;4809673;29;20186;-82
2022/05/31 13:08:59;;;;;;;2.40;1.05;;;22.30;80.20;;;;;;4809590;29;20174;-87
2022/05/31 13:20:25;;;;;;;4.70;1.00;;;22.60;77.80;;;;;;4809440;29;20227;-85
2022/05/31 13:22:56;;;;;;;2.05;1.00;;;22.60;72.20;;;;;;4808839;29;20332;-83
2022/05/31 13:25:50;;;;;;;1.40;0.93;;;22.70;73.00;;;;;;4809225;29;20642;-83
2022/05/31 13:28:29;;;;;;;4.55;1.00;;;22.70;71.00;;;;;;4804028;29;20293;-84
2022/05/31 13:31:02;;;;;;;1.20;0.77;;;22.40;70.70;;;;;;4808435;29;20297;-83
2022/05/31 13:33:29;;;;;;;1.70;0.90;;;22.40;72.70;;;;;;4791026;29;20240;-83
2022/05/31 13:36:28;;;;;;;1.77;0.88;;;22.20;70.90;;;;;;4789878;29;20294;-82
2022/05/31 13:39:03;;;;;;;1.42;0.90;;;22.20;68.30;;;;;;4797790;29;20203;-83
2022/05/31 13:41:30;;;;;;;1.65;0.90;;;21.70;71.20;;;;;;4790946;29;20646;-83
2022/05/31 13:44:06;;;;;;;1.60;1.02;;;21.60;73.30;;;;;;4794213;29;20183;-83
2022/05/31 13:46:47;;;;;;;1.33;0.70;;;21.80;70.50;;;;;;4808787;29;20179;-83
2022/05/31 13:49:37;;;;;;;1.55;0.85;;;21.90;69.90;;;;;;4807660;29;20174;-84
2022/05/31 13:52:25;;;;;;;1.50;0.90;;;21.50;70.70;;;;;;4807829;29;20619;-83
2022/05/31 13:54:54;;;;;;;2.55;0.88;;;21.20;75.20;;;;;;4807243;29;20313;-83